OAHR

Details ICAO OAHR (HEA)
Name HERAT
Region Afghanistan
Timezone Asia/Kabul (UTC+4.5)
Plans Departing 2
Arriving 7
Stats Elevation 3,206 ft / 977 m (AMSL)
Location 34.210017° 62.228300°
Runways 1
Magnetic Variation 3.546° E
Sunrise 2017-12-13 02:49:39 UTC / 2017-12-13 07:19:39 Local
Sunset 2017-12-13 12:43:36 UTC / 2017-12-13 17:13:36 Local
Advertisement - Login to hide

Runways

ID Width Length Bearing (true) Bearing (mag) Surface Threshold Offset Overrun Length
18 150 ft / 46 m 8,240 ft / 2,512 m 187.25° 183.70° Asphalt 0 ft / 0 m 0 ft / 0 m
36 150 ft / 46 m 8,240 ft / 2,512 m 7.25° 3.70° Asphalt 0 ft / 0 m 0 ft / 0 m

Map

Weather


0- 5 10 15 20 25 30 35+ Temperature / ° C

Clouds and Precipitation
Forecast for 2017-12-13 12:00 UTC. Updated 2 hours ago

Ground ~20,000 ft ~40,000 ft Winds

METAR

OAHR 131055Z 24006KT CAVOK 07/M07 Q1022 RMK BLU

TAF

TAF AMD OAHR 130130Z 1302/1324 27008KT CAVOK

Frequencies

Tower 118.10 MHz TWR
Warning: Do not use this data for real-world aviation or navigation. No guarantee of current accuracy is given.